sensor_id;sensor_type;location;lat;lon;timestamp;pressure;altitude;pressure_sealevel;temperature;humidity
21826;BME280;11075;47.944;11.776;2023-02-26T00:01:34;93794.59;;;4.16;25.85
21826;BME280;11075;47.944;11.776;2023-02-26T00:04:04;93790.63;;;2.35;26.91
21826;BME280;11075;47.944;11.776;2023-02-26T00:06:34;93789.31;;;1.12;28.93
21826;BME280;11075;47.944;11.776;2023-02-26T00:09:02;93794.84;;;2.67;27.39
21826;BME280;11075;47.944;11.776;2023-02-26T00:11:30;93788.97;;;1.64;28.00
21826;BME280;11075;47.944;11.776;2023-02-26T00:13:58;93795.88;;;3.15;26.63
21826;BME280;11075;47.944;11.776;2023-02-26T00:18:56;93810.97;;;3.88;25.60
21826;BME280;11075;47.944;11.776;2023-02-26T00:21:24;93815.78;;;3.26;26.06
21826;BME280;11075;47.944;11.776;2023-02-26T00:23:53;93812.09;;;4.43;24.96
21826;BME280;11075;47.944;11.776;2023-02-26T00:26:22;93815.84;;;2.77;26.89
21826;BME280;11075;47.944;11.776;2023-02-26T00:28:50;93810.16;;;3.53;26.51
21826;BME280;11075;47.944;11.776;2023-02-26T00:31:18;93823.97;;;3.98;25.42
21826;BME280;11075;47.944;11.776;2023-02-26T00:33:53;93832.44;;;3.74;25.15
21826;BME280;11075;47.944;11.776;2023-02-26T00:41:39;93825.47;;;4.34;25.00
21826;BME280;11075;47.944;11.776;2023-02-26T00:44:06;93828.66;;;1.46;28.07
21826;BME280;11075;47.944;11.776;2023-02-26T00:46:48;93836.41;;;2.63;26.67
21826;BME280;11075;47.944;11.776;2023-02-26T00:52:05;93841.56;;;2.91;26.56
21826;BME280;11075;47.944;11.776;2023-02-26T00:54:37;93835.50;;;3.07;26.65
21826;BME280;11075;47.944;11.776;2023-02-26T00:57:04;93842.75;;;3.41;26.41
21826;BME280;11075;47.944;11.776;2023-02-26T00:59:32;93828.84;;;1.50;27.97
21826;BME280;11075;47.944;11.776;2023-02-26T01:02:00;93829.72;;;2.04;27.24
21826;BME280;11075;47.944;11.776;2023-02-26T01:04:27;93833.97;;;3.32;26.77
21826;BME280;11075;47.944;11.776;2023-02-26T01:06:56;93838.00;;;4.33;25.33
21826;BME280;11075;47.944;11.776;2023-02-26T01:09:28;93837.06;;;2.07;27.20
21826;BME280;11075;47.944;11.776;2023-02-26T01:11:58;93825.00;;;2.01;27.34
21826;BME280;11075;47.944;11.776;2023-02-26T01:14:30;93846.00;;;3.21;25.72
21826;BME280;11075;47.944;11.776;2023-02-26T01:19:51;93831.78;;;2.38;26.87
21826;BME280;11075;47.944;11.776;2023-02-26T01:22:24;93817.38;;;0.77;29.25
21826;BME280;11075;47.944;11.776;2023-02-26T01:25:01;93826.47;;;1.85;27.90
21826;BME280;11075;47.944;11.776;2023-02-26T01:27:29;93835.28;;;3.69;25.94
21826;BME280;11075;47.944;11.776;2023-02-26T01:29:56;93832.53;;;4.30;25.32
21826;BME280;11075;47.944;11.776;2023-02-26T01:32:40;93843.31;;;2.33;26.47
21826;BME280;11075;47.944;11.776;2023-02-26T01:37:52;93829.38;;;2.28;27.40
21826;BME280;11075;47.944;11.776;2023-02-26T01:43:18;93847.63;;;1.40;26.96
21826;BME280;11075;47.944;11.776;2023-02-26T01:46:23;93832.25;;;2.40;27.27
21826;BME280;11075;47.944;11.776;2023-02-26T01:48:51;93848.81;;;3.16;25.53
21826;BME280;11075;47.944;11.776;2023-02-26T01:54:08;93839.09;;;1.79;27.81
21826;BME280;11075;47.944;11.776;2023-02-26T01:56:36;93842.63;;;1.74;27.39
21826;BME280;11075;47.944;11.776;2023-02-26T01:59:04;93842.69;;;2.05;27.17
21826;BME280;11075;47.944;11.776;2023-02-26T02:01:38;93848.75;;;1.97;26.91
21826;BME280;11075;47.944;11.776;2023-02-26T02:04:09;93839.47;;;-0.01;29.04
21826;BME280;11075;47.944;11.776;2023-02-26T02:06:37;93845.97;;;1.80;26.57
21826;BME280;11075;47.944;11.776;2023-02-26T02:09:06;93841.72;;;1.43;27.29
21826;BME280;11075;47.944;11.776;2023-02-26T02:11:33;93835.09;;;1.18;27.82
21826;BME280;11075;47.944;11.776;2023-02-26T02:16:57;93846.19;;;2.14;26.60
21826;BME280;11075;47.944;11.776;2023-02-26T02:27:48;93868.31;;;1.29;26.78
21826;BME280;11075;47.944;11.776;2023-02-26T02:35:20;93850.13;;;1.23;27.90
21826;BME280;11075;47.944;11.776;2023-02-26T02:37:57;93853.69;;;1.18;27.88
21826;BME280;11075;47.944;11.776;2023-02-26T02:40:29;93853.13;;;1.57;27.13
21826;BME280;11075;47.944;11.776;2023-02-26T02:43:14;93861.66;;;1.18;27.34
21826;BME280;11075;47.944;11.776;2023-02-26T02:45:47;93857.28;;;-0.06;28.57
21826;BME280;11075;47.944;11.776;2023-02-26T02:48:33;93858.50;;;1.66;26.80
21826;BME280;11075;47.944;11.776;2023-02-26T02:51:12;93863.41;;;-0.25;28.53
21826;BME280;11075;47.944;11.776;2023-02-26T02:53:46;93870.78;;;1.26;26.40
21826;BME280;11075;47.944;11.776;2023-02-26T02:56:22;93853.19;;;1.16;27.34
21826;BME280;11075;47.944;11.776;2023-02-26T02:59:01;93859.41;;;1.47;26.89
21826;BME280;11075;47.944;11.776;2023-02-26T03:01:31;93852.19;;;0.30;28.19
21826;BME280;11075;47.944;11.776;2023-02-26T03:04:08;93878.03;;;2.90;25.19
21826;BME280;11075;47.944;11.776;2023-02-26T03:06:37;93864.66;;;2.20;26.22
21826;BME280;11075;47.944;11.776;2023-02-26T03:09:06;93875.28;;;2.20;26.21
21826;BME280;11075;47.944;11.776;2023-02-26T03:11:34;93893.84;;;2.33;25.16
21826;BME280;11075;47.944;11.776;2023-02-26T03:14:02;93876.72;;;1.59;26.82
21826;BME280;11075;47.944;11.776;2023-02-26T03:19:28;93873.38;;;2.11;26.47
21826;BME280;11075;47.944;11.776;2023-02-26T03:27:38;93874.00;;;0.40;28.12
21826;BME280;11075;47.944;11.776;2023-02-26T03:30:19;93873.47;;;2.29;26.56
21826;BME280;11075;47.944;11.776;2023-02-26T03:32:54;93880.28;;;1.40;27.75
21826;BME280;11075;47.944;11.776;2023-02-26T03:35:36;93878.13;;;2.23;26.30
21826;BME280;11075;47.944;11.776;2023-02-26T03:38:10;93866.09;;;-1.29;29.74
21826;BME280;11075;47.944;11.776;2023-02-26T03:40:49;93873.56;;;-1.36;30.34
21826;BME280;11075;47.944;11.776;2023-02-26T03:45:59;93874.72;;;-0.57;28.77
21826;BME280;11075;47.944;11.776;2023-02-26T03:48:29;93857.50;;;-3.15;32.42
21826;BME280;11075;47.944;11.776;2023-02-26T03:51:01;93882.81;;;-0.67;28.52
21826;BME280;11075;47.944;11.776;2023-02-26T03:54:09;93880.25;;;-0.02;27.91
21826;BME280;11075;47.944;11.776;2023-02-26T03:56:44;93883.16;;;0.15;28.46
21826;BME280;11075;47.944;11.776;2023-02-26T03:59:47;93890.34;;;0.29;28.50
21826;BME280;11075;47.944;11.776;2023-02-26T04:02:43;93895.81;;;1.47;26.77
21826;BME280;11075;47.944;11.776;2023-02-26T04:05:21;93898.19;;;-0.13;28.13
21826;BME280;11075;47.944;11.776;2023-02-26T04:07:49;93906.03;;;0.44;27.49
21826;BME280;11075;47.944;11.776;2023-02-26T04:10:20;93913.69;;;-0.06;27.67
21826;BME280;11075;47.944;11.776;2023-02-26T04:12:50;93907.53;;;0.31;27.89
21826;BME280;11075;47.944;11.776;2023-02-26T04:15:17;93916.06;;;-0.61;29.11
21826;BME280;11075;47.944;11.776;2023-02-26T04:17:45;93920.91;;;-0.68;27.98
21826;BME280;11075;47.944;11.776;2023-02-26T04:20:12;93931.72;;;-0.64;27.03
21826;BME280;11075;47.944;11.776;2023-02-26T04:22:38;93916.56;;;-0.59;28.83
21826;BME280;11075;47.944;11.776;2023-02-26T04:25:05;93928.47;;;-0.37;28.03
21826;BME280;11075;47.944;11.776;2023-02-26T04:27:32;93939.72;;;0.25;27.17
21826;BME280;11075;47.944;11.776;2023-02-26T04:29:59;93952.34;;;-0.43;27.30
21826;BME280;11075;47.944;11.776;2023-02-26T04:32:26;93975.63;;;1.78;24.38
21826;BME280;11075;47.944;11.776;2023-02-26T04:34:53;93961.69;;;1.17;26.34
21826;BME280;11075;47.944;11.776;2023-02-26T04:37:20;93958.66;;;-0.01;27.22
21826;BME280;11075;47.944;11.776;2023-02-26T04:39:47;93986.97;;;3.26;23.63
21826;BME280;11075;47.944;11.776;2023-02-26T04:42:14;93989.16;;;3.24;23.84
21826;BME280;11075;47.944;11.776;2023-02-26T04:44:41;93995.63;;;3.80;23.42
21826;BME280;11075;47.944;11.776;2023-02-26T04:47:08;94011.28;;;3.33;23.09
21826;BME280;11075;47.944;11.776;2023-02-26T04:49:36;93992.88;;;1.67;26.00
21826;BME280;11075;47.944;11.776;2023-02-26T04:52:03;93991.97;;;-0.37;27.89
21826;BME280;11075;47.944;11.776;2023-02-26T04:54:31;93988.72;;;1.19;26.38
21826;BME280;11075;47.944;11.776;2023-02-26T04:56:57;93994.53;;;1.22;26.42
21826;BME280;11075;47.944;11.776;2023-02-26T04:59:25;94005.03;;;0.15;26.80
21826;BME280;11075;47.944;11.776;2023-02-26T05:01:52;93996.19;;;-0.55;27.66
21826;BME280;11075;47.944;11.776;2023-02-26T05:04:19;94000.47;;;2.54;24.75
21826;BME280;11075;47.944;11.776;2023-02-26T05:06:50;94004.59;;;2.38;24.71
21826;BME280;11075;47.944;11.776;2023-02-26T05:09:18;94019.31;;;1.44;24.87
21826;BME280;11075;47.944;11.776;2023-02-26T05:11:45;94020.31;;;2.93;24.40
21826;BME280;11075;47.944;11.776;2023-02-26T05:14:14;94021.59;;;0.91;25.86
21826;BME280;11075;47.944;11.776;2023-02-26T05:16:43;94028.56;;;2.83;24.43
21826;BME280;11075;47.944;11.776;2023-02-26T05:19:10;94037.13;;;2.21;24.45
21826;BME280;11075;47.944;11.776;2023-02-26T05:21:37;94029.00;;;0.24;26.71
21826;BME280;11075;47.944;11.776;2023-02-26T05:24:04;94040.13;;;1.10;25.35
21826;BME280;11075;47.944;11.776;2023-02-26T05:26:31;94040.53;;;1.44;25.42
21826;BME280;11075;47.944;11.776;2023-02-26T05:28:58;94046.22;;;1.10;25.05
21826;BME280;11075;47.944;11.776;2023-02-26T05:31:25;94053.59;;;1.27;24.36
21826;BME280;11075;47.944;11.776;2023-02-26T05:33:52;94053.44;;;1.92;24.26
21826;BME280;11075;47.944;11.776;2023-02-26T05:36:19;94050.31;;;2.26;23.80
21826;BME280;11075;47.944;11.776;2023-02-26T05:38:46;94055.41;;;-0.08;25.90
21826;BME280;11075;47.944;11.776;2023-02-26T05:41:13;94054.19;;;1.38;24.55
21826;BME280;11075;47.944;11.776;2023-02-26T05:43:40;94065.81;;;2.10;23.56
21826;BME280;11075;47.944;11.776;2023-02-26T05:46:07;94060.06;;;0.75;25.13
21826;BME280;11075;47.944;11.776;2023-02-26T05:48:34;94074.13;;;1.08;24.28
21826;BME280;11075;47.944;11.776;2023-02-26T05:51:00;94070.22;;;2.87;23.02
21826;BME280;11075;47.944;11.776;2023-02-26T05:53:28;94078.72;;;2.03;23.02
21826;BME280;11075;47.944;11.776;2023-02-26T05:55:55;94087.81;;;2.25;22.74
21826;BME280;11075;47.944;11.776;2023-02-26T05:58:22;94076.56;;;3.00;22.97
21826;BME280;11075;47.944;11.776;2023-02-26T06:00:49;94076.91;;;2.12;23.33
21826;BME280;11075;47.944;11.776;2023-02-26T06:03:15;94075.09;;;2.35;23.23
21826;BME280;11075;47.944;11.776;2023-02-26T06:05:43;94082.44;;;2.16;23.42
21826;BME280;11075;47.944;11.776;2023-02-26T06:08:10;94096.63;;;1.84;23.21
21826;BME280;11075;47.944;11.776;2023-02-26T06:10:42;94080.19;;;1.96;23.78
21826;BME280;11075;47.944;11.776;2023-02-26T06:13:09;94086.13;;;1.19;24.43
21826;BME280;11075;47.944;11.776;2023-02-26T06:15:36;94091.06;;;1.39;24.22
21826;BME280;11075;47.944;11.776;2023-02-26T06:18:03;94089.28;;;-0.77;26.41
21826;BME280;11075;47.944;11.776;2023-02-26T06:20:30;94089.88;;;0.10;25.09
21826;BME280;11075;47.944;11.776;2023-02-26T06:22:57;94091.78;;;-0.38;26.31
21826;BME280;11075;47.944;11.776;2023-02-26T06:25:24;94091.88;;;-0.00;26.49
21826;BME280;11075;47.944;11.776;2023-02-26T06:27:50;94105.41;;;0.17;25.90
21826;BME280;11075;47.944;11.776;2023-02-26T06:30:17;94106.06;;;1.63;24.45
21826;BME280;11075;47.944;11.776;2023-02-26T06:32:44;94122.50;;;0.67;24.92
21826;BME280;11075;47.944;11.776;2023-02-26T06:35:12;94113.41;;;-0.55;26.04
21826;BME280;11075;47.944;11.776;2023-02-26T06:37:38;94122.34;;;1.42;24.87
21826;BME280;11075;47.944;11.776;2023-02-26T06:40:06;94123.25;;;0.11;25.32
21826;BME280;11075;47.944;11.776;2023-02-26T06:42:33;94120.97;;;-0.43;25.77
21826;BME280;11075;47.944;11.776;2023-02-26T06:45:00;94131.53;;;-0.67;26.29
21826;BME280;11075;47.944;11.776;2023-02-26T06:47:27;94133.41;;;0.47;24.90
21826;BME280;11075;47.944;11.776;2023-02-26T06:49:54;94123.34;;;-1.39;27.02
21826;BME280;11075;47.944;11.776;2023-02-26T06:52:21;94133.22;;;-1.15;27.17
21826;BME280;11075;47.944;11.776;2023-02-26T06:54:47;94139.50;;;-1.06;26.67
21826;BME280;11075;47.944;11.776;2023-02-26T06:57:14;94124.88;;;0.07;26.63
21826;BME280;11075;47.944;11.776;2023-02-26T06:59:42;94152.22;;;1.34;24.41
21826;BME280;11075;47.944;11.776;2023-02-26T07:02:19;94154.09;;;0.82;25.17
21826;BME280;11075;47.944;11.776;2023-02-26T07:04:47;94149.09;;;0.43;26.06
21826;BME280;11075;47.944;11.776;2023-02-26T07:07:14;94173.03;;;1.27;24.42
21826;BME280;11075;47.944;11.776;2023-02-26T07:09:42;94171.19;;;1.60;24.51
21826;BME280;11075;47.944;11.776;2023-02-26T07:12:11;94177.06;;;0.07;25.34
21826;BME280;11075;47.944;11.776;2023-02-26T07:14:38;94176.69;;;-0.29;26.31
21826;BME280;11075;47.944;11.776;2023-02-26T07:17:06;94185.56;;;0.51;24.98
21826;BME280;11075;47.944;11.776;2023-02-26T07:19:32;94173.94;;;1.69;24.65
21826;BME280;11075;47.944;11.776;2023-02-26T07:21:59;94181.41;;;2.76;23.24
21826;BME280;11075;47.944;11.776;2023-02-26T07:24:27;94182.91;;;0.51;25.52
21826;BME280;11075;47.944;11.776;2023-02-26T07:26:54;94194.56;;;1.26;25.01
21826;BME280;11075;47.944;11.776;2023-02-26T07:29:20;94186.09;;;-1.59;27.47
21826;BME280;11075;47.944;11.776;2023-02-26T07:31:47;94195.81;;;0.96;25.11
21826;BME280;11075;47.944;11.776;2023-02-26T07:34:14;94193.41;;;0.38;26.20
21826;BME280;11075;47.944;11.776;2023-02-26T07:36:41;94189.63;;;-1.74;28.33
21826;BME280;11075;47.944;11.776;2023-02-26T07:39:09;94201.09;;;-0.08;25.51
21826;BME280;11075;47.944;11.776;2023-02-26T07:41:36;94206.34;;;1.52;24.72
21826;BME280;11075;47.944;11.776;2023-02-26T07:44:12;94206.34;;;0.63;25.49
21826;BME280;11075;47.944;11.776;2023-02-26T07:46:39;94215.44;;;3.02;22.98
21826;BME280;11075;47.944;11.776;2023-02-26T07:49:06;94231.16;;;2.07;23.64
21826;BME280;11075;47.944;11.776;2023-02-26T07:51:33;94235.31;;;0.60;25.00
21826;BME280;11075;47.944;11.776;2023-02-26T07:53:59;94222.84;;;0.36;25.96
21826;BME280;11075;47.944;11.776;2023-02-26T07:56:26;94241.34;;;1.73;23.59
21826;BME280;11075;47.944;11.776;2023-02-26T07:58:53;94223.00;;;2.04;24.54
21826;BME280;11075;47.944;11.776;2023-02-26T08:01:20;94227.22;;;2.46;24.06
21826;BME280;11075;47.944;11.776;2023-02-26T08:03:47;94243.41;;;3.71;22.13
21826;BME280;11075;47.944;11.776;2023-02-26T08:06:14;94243.91;;;1.78;24.20
21826;BME280;11075;47.944;11.776;2023-02-26T08:08:41;94232.94;;;1.33;24.25
21826;BME280;11075;47.944;11.776;2023-02-26T08:11:08;94216.81;;;0.92;26.00
21826;BME280;11075;47.944;11.776;2023-02-26T08:13:35;94234.25;;;0.98;24.61
21826;BME280;11075;47.944;11.776;2023-02-26T08:16:02;94239.34;;;2.38;23.02
21826;BME280;11075;47.944;11.776;2023-02-26T08:18:29;94242.28;;;2.64;23.62
21826;BME280;11075;47.944;11.776;2023-02-26T08:20:56;94244.72;;;-0.30;26.19
21826;BME280;11075;47.944;11.776;2023-02-26T08:23:23;94254.22;;;0.72;25.85
21826;BME280;11075;47.944;11.776;2023-02-26T08:26:03;94261.00;;;2.32;23.97
21826;BME280;11075;47.944;11.776;2023-02-26T08:28:30;94263.88;;;1.57;24.62
21826;BME280;11075;47.944;11.776;2023-02-26T08:30:57;94271.25;;;2.52;23.81
21826;BME280;11075;47.944;11.776;2023-02-26T08:33:25;94272.63;;;0.63;25.61
21826;BME280;11075;47.944;11.776;2023-02-26T08:35:52;94276.00;;;2.69;23.60
21826;BME280;11075;47.944;11.776;2023-02-26T08:38:19;94281.72;;;2.76;23.35
21826;BME280;11075;47.944;11.776;2023-02-26T08:40:49;94289.66;;;4.29;21.72
21826;BME280;11075;47.944;11.776;2023-02-26T08:43:16;94285.69;;;3.51;22.31
21826;BME280;11075;47.944;11.776;2023-02-26T08:45:44;94296.00;;;1.60;24.32
21826;BME280;11075;47.944;11.776;2023-02-26T08:48:11;94287.50;;;2.51;23.70
21826;BME280;11075;47.944;11.776;2023-02-26T08:50:38;94285.84;;;2.96;23.71
21826;BME280;11075;47.944;11.776;2023-02-26T08:53:06;94303.66;;;3.09;22.39
21826;BME280;11075;47.944;11.776;2023-02-26T08:55:33;94308.47;;;3.57;22.35
21826;BME280;11075;47.944;11.776;2023-02-26T08:57:59;94306.06;;;3.91;22.27
21826;BME280;11075;47.944;11.776;2023-02-26T09:00:27;94303.59;;;3.95;22.28
21826;BME280;11075;47.944;11.776;2023-02-26T09:02:54;94304.34;;;3.15;23.70
21826;BME280;11075;47.944;11.776;2023-02-26T09:05:21;94314.59;;;1.93;23.99
21826;BME280;11075;47.944;11.776;2023-02-26T09:07:48;94322.78;;;1.96;23.56
21826;BME280;11075;47.944;11.776;2023-02-26T09:10:16;94313.50;;;3.58;23.08
21826;BME280;11075;47.944;11.776;2023-02-26T09:12:43;94333.06;;;4.83;21.43
21826;BME280;11075;47.944;11.776;2023-02-26T09:15:12;94334.53;;;3.82;21.96
21826;BME280;11075;47.944;11.776;2023-02-26T09:17:40;94340.84;;;4.08;21.82
21826;BME280;11075;47.944;11.776;2023-02-26T09:20:09;94342.06;;;1.69;23.65
21826;BME280;11075;47.944;11.776;2023-02-26T09:22:36;94332.72;;;4.14;21.94
21826;BME280;11075;47.944;11.776;2023-02-26T09:25:03;94347.00;;;4.71;21.23
21826;BME280;11075;47.944;11.776;2023-02-26T09:27:31;94357.56;;;4.23;21.81
21826;BME280;11075;47.944;11.776;2023-02-26T09:29:59;94367.22;;;5.03;20.47
21826;BME280;11075;47.944;11.776;2023-02-26T09:32:26;94375.13;;;6.72;19.86
21826;BME280;11075;47.944;11.776;2023-02-26T09:34:53;94370.28;;;4.79;21.63
21826;BME280;11075;47.944;11.776;2023-02-26T09:37:19;94367.25;;;4.72;21.72
21826;BME280;11075;47.944;11.776;2023-02-26T09:39:47;94353.19;;;3.46;23.36
21826;BME280;11075;47.944;11.776;2023-02-26T09:44:45;94387.69;;;5.16;20.79
21826;BME280;11075;47.944;11.776;2023-02-26T09:47:21;94372.78;;;4.00;22.78
21826;BME280;11075;47.944;11.776;2023-02-26T09:50:00;94373.53;;;4.67;22.29
21826;BME280;11075;47.944;11.776;2023-02-26T09:55:16;94387.91;;;5.46;20.96
21826;BME280;11075;47.944;11.776;2023-02-26T09:57:48;94395.09;;;5.28;20.74
21826;BME280;11075;47.944;11.776;2023-02-26T10:11:41;94396.34;;;4.06;22.44
21826;BME280;11075;47.944;11.776;2023-02-26T10:14:26;94386.47;;;4.83;22.90
21826;BME280;11075;47.944;11.776;2023-02-26T10:16:58;94385.78;;;4.46;22.44
21826;BME280;11075;47.944;11.776;2023-02-26T10:19:31;94386.50;;;3.71;22.94
21826;BME280;11075;47.944;11.776;2023-02-26T10:22:43;94393.63;;;5.53;21.05
21826;BME280;11075;47.944;11.776;2023-02-26T10:25:10;94385.84;;;4.32;22.37
21826;BME280;11075;47.944;11.776;2023-02-26T10:28:00;94390.50;;;4.49;22.22
21826;BME280;11075;47.944;11.776;2023-02-26T10:30:39;94377.31;;;3.99;22.51
21826;BME280;11075;47.944;11.776;2023-02-26T10:35:46;94387.66;;;3.01;23.21
21826;BME280;11075;47.944;11.776;2023-02-26T10:38:23;94373.53;;;2.60;24.04
21826;BME280;11075;47.944;11.776;2023-02-26T10:40:56;94370.66;;;3.88;22.87
21826;BME280;11075;47.944;11.776;2023-02-26T10:43:38;94376.81;;;2.98;23.78
21826;BME280;11075;47.944;11.776;2023-02-26T10:46:39;94367.81;;;3.35;23.82
21826;BME280;11075;47.944;11.776;2023-02-26T10:52:04;94354.25;;;3.59;23.23
21826;BME280;11075;47.944;11.776;2023-02-26T10:55:06;94361.16;;;2.36;24.03
21826;BME280;11075;47.944;11.776;2023-02-26T10:57:31;94354.25;;;2.68;23.91
21826;BME280;11075;47.944;11.776;2023-02-26T11:00:00;94354.25;;;1.89;24.84
21826;BME280;11075;47.944;11.776;2023-02-26T11:02:43;94353.16;;;3.10;23.74
21826;BME280;11075;47.944;11.776;2023-02-26T11:05:31;94349.09;;;4.83;22.07
21826;BME280;11075;47.944;11.776;2023-02-26T11:08:03;94370.09;;;5.24;21.26
21826;BME280;11075;47.944;11.776;2023-02-26T11:10:39;94359.59;;;5.36;21.70
21826;BME280;11075;47.944;11.776;2023-02-26T11:13:08;94362.66;;;5.69;21.24
21826;BME280;11075;47.944;11.776;2023-02-26T11:15:35;94335.72;;;2.90;24.03
21826;BME280;11075;47.944;11.776;2023-02-26T11:18:02;94350.28;;;5.16;22.26
21826;BME280;11075;47.944;11.776;2023-02-26T11:20:42;94350.88;;;2.62;23.97
21826;BME280;11075;47.944;11.776;2023-02-26T11:23:13;94372.56;;;3.74;23.30
21826;BME280;11075;47.944;11.776;2023-02-26T11:25:42;94382.47;;;4.18;22.71
21826;BME280;11075;47.944;11.776;2023-02-26T11:28:44;94393.78;;;5.08;21.86
21826;BME280;11075;47.944;11.776;2023-02-26T11:31:14;94402.31;;;5.19;20.99
21826;BME280;11075;47.944;11.776;2023-02-26T11:33:44;94382.28;;;3.92;23.55
21826;BME280;11075;47.944;11.776;2023-02-26T11:36:18;94390.22;;;3.84;23.46
21826;BME280;11075;47.944;11.776;2023-02-26T11:38:55;94402.22;;;5.50;21.86
21826;BME280;11075;47.944;11.776;2023-02-26T11:41:23;94419.31;;;3.30;22.65
21826;BME280;11075;47.944;11.776;2023-02-26T11:44:16;94396.09;;;3.94;23.69
21826;BME280;11075;47.944;11.776;2023-02-26T11:46:49;94417.09;;;5.25;21.10
21826;BME280;11075;47.944;11.776;2023-02-26T11:49:20;94414.56;;;6.37;20.57
21826;BME280;11075;47.944;11.776;2023-02-26T11:52:15;94423.06;;;6.13;20.82
21826;BME280;11075;47.944;11.776;2023-02-26T11:54:44;94410.56;;;5.48;22.29
21826;BME280;11075;47.944;11.776;2023-02-26T11:57:23;94415.78;;;5.62;21.36
21826;BME280;11075;47.944;11.776;2023-02-26T11:59:51;94407.22;;;6.89;21.11
21826;BME280;11075;47.944;11.776;2023-02-26T12:02:21;94432.03;;;7.54;19.43
21826;BME280;11075;47.944;11.776;2023-02-26T12:04:57;94416.22;;;4.00;23.20
21826;BME280;11075;47.944;11.776;2023-02-26T12:07:26;94402.44;;;2.80;24.58
21826;BME280;11075;47.944;11.776;2023-02-26T12:09:53;94388.56;;;3.74;23.53
21826;BME280;11075;47.944;11.776;2023-02-26T12:12:45;94390.66;;;6.41;21.53
21826;BME280;11075;47.944;11.776;2023-02-26T12:20:27;94407.53;;;5.32;22.02
21826;BME280;11075;47.944;11.776;2023-02-26T12:31:55;94408.88;;;5.61;21.65
21826;BME280;11075;47.944;11.776;2023-02-26T12:40:42;94399.13;;;5.08;22.35
21826;BME280;11075;47.944;11.776;2023-02-26T12:43:10;94396.97;;;3.67;24.07
21826;BME280;11075;47.944;11.776;2023-02-26T13:01:35;94377.72;;;3.57;24.91
21826;BME280;11075;47.944;11.776;2023-02-26T13:10:26;94389.91;;;4.30;23.59
21826;BME280;11075;47.944;11.776;2023-02-26T13:18:47;94385.84;;;4.32;23.97
21826;BME280;11075;47.944;11.776;2023-02-26T13:24:06;94402.13;;;6.50;21.23
21826;BME280;11075;47.944;11.776;2023-02-26T13:26:37;94390.31;;;4.68;23.83
21826;BME280;11075;47.944;11.776;2023-02-26T13:29:26;94411.31;;;6.87;21.39
21826;BME280;11075;47.944;11.776;2023-02-26T13:32:07;94419.34;;;5.49;22.76
21826;BME280;11075;47.944;11.776;2023-02-26T13:34:52;94405.09;;;4.74;22.81
21826;BME280;11075;47.944;11.776;2023-02-26T13:37:22;94400.66;;;7.16;20.73
21826;BME280;11075;47.944;11.776;2023-02-26T13:40:10;94409.91;;;7.86;20.27
21826;BME280;11075;47.944;11.776;2023-02-26T13:42:55;94404.25;;;7.58;20.96
21826;BME280;11075;47.944;11.776;2023-02-26T13:50:54;94423.72;;;8.72;19.75
21826;BME280;11075;47.944;11.776;2023-02-26T13:58:48;94403.00;;;7.26;21.59
21826;BME280;11075;47.944;11.776;2023-02-26T14:01:16;94392.75;;;6.82;22.57
21826;BME280;11075;47.944;11.776;2023-02-26T14:04:25;94413.38;;;10.44;18.79
21826;BME280;11075;47.944;11.776;2023-02-26T14:06:57;94418.16;;;7.22;21.75
21826;BME280;11075;47.944;11.776;2023-02-26T14:19:20;94383.28;;;2.64;25.77
21826;BME280;11075;47.944;11.776;2023-02-26T14:21:52;94367.13;;;1.82;27.02
21826;BME280;11075;47.944;11.776;2023-02-26T14:24:29;94376.63;;;2.94;25.82
21826;BME280;11075;47.944;11.776;2023-02-26T14:27:24;94387.66;;;4.46;23.73
21826;BME280;11075;47.944;11.776;2023-02-26T14:29:57;94400.53;;;3.49;24.20
21826;BME280;11075;47.944;11.776;2023-02-26T14:35:20;94416.06;;;3.06;25.26
21826;BME280;11075;47.944;11.776;2023-02-26T14:38:04;94406.91;;;-1.18;31.07
21826;BME280;11075;47.944;11.776;2023-02-26T14:40:46;94410.25;;;-0.37;29.31
21826;BME280;11075;47.944;11.776;2023-02-26T14:43:21;94402.28;;;1.55;27.81
21826;BME280;11075;47.944;11.776;2023-02-26T14:45:52;94408.75;;;0.53;28.08
21826;BME280;11075;47.944;11.776;2023-02-26T14:48:22;94411.41;;;2.38;26.71
21826;BME280;11075;47.944;11.776;2023-02-26T14:51:10;94410.41;;;3.49;25.06
21826;BME280;11075;47.944;11.776;2023-02-26T14:54:15;94428.38;;;3.93;24.05
21826;BME280;11075;47.944;11.776;2023-02-26T14:56:56;94437.47;;;5.12;22.88
21826;BME280;11075;47.944;11.776;2023-02-26T14:59:49;94444.72;;;3.64;24.06
21826;BME280;11075;47.944;11.776;2023-02-26T15:02:36;94472.88;;;5.66;21.83
21826;BME280;11075;47.944;11.776;2023-02-26T15:11:10;94467.41;;;5.00;22.16
21826;BME280;11075;47.944;11.776;2023-02-26T15:22:29;94463.38;;;3.09;24.31
21826;BME280;11075;47.944;11.776;2023-02-26T15:24:58;94464.13;;;5.03;22.30
21826;BME280;11075;47.944;11.776;2023-02-26T15:27:29;94461.63;;;4.31;23.00
21826;BME280;11075;47.944;11.776;2023-02-26T15:29:58;94483.13;;;4.13;22.67
21826;BME280;11075;47.944;11.776;2023-02-26T15:32:29;94480.84;;;5.18;22.54
21826;BME280;11075;47.944;11.776;2023-02-26T15:34:59;94487.72;;;5.98;21.58
21826;BME280;11075;47.944;11.776;2023-02-26T15:37:28;94477.47;;;3.78;23.84
21826;BME280;11075;47.944;11.776;2023-02-26T15:39:59;94479.94;;;3.61;23.53
21826;BME280;11075;47.944;11.776;2023-02-26T15:42:34;94476.22;;;4.12;23.73
21826;BME280;11075;47.944;11.776;2023-02-26T15:45:22;94483.59;;;3.65;23.71
21826;BME280;11075;47.944;11.776;2023-02-26T15:47:55;94499.84;;;5.95;21.23
21826;BME280;11075;47.944;11.776;2023-02-26T15:50:28;94495.22;;;5.79;21.61
21826;BME280;11075;47.944;11.776;2023-02-26T15:53:02;94502.03;;;6.97;20.85
21826;BME280;11075;47.944;11.776;2023-02-26T15:55:36;94508.38;;;5.58;21.76
21826;BME280;11075;47.944;11.776;2023-02-26T15:58:05;94490.25;;;2.10;25.74
21826;BME280;11075;47.944;11.776;2023-02-26T16:00:35;94503.63;;;5.15;22.32
21826;BME280;11075;47.944;11.776;2023-02-26T16:03:03;94494.03;;;1.18;26.63
21826;BME280;11075;47.944;11.776;2023-02-26T16:05:30;94488.84;;;2.50;25.34